Time;durP1;ratioP1;P1;durP2;ratioP2;P2;SDS_P1;SDS_P2;PMS_P1;PMS_P2;Temp;Humidity;BMP_temperature;BMP_pressure;BME280_temperature;BME280_humidity;BME280_pressure;Samples;Min_cycle;Max_cycle;Signal;HPM_P1;HPM_P2
2021/08/27 00:00:20;;;;;;;3.30;1.50;;;20.70;68.20;;;;;;4189386;28;20048;-60
2021/08/27 00:02:42;;;;;;;3.20;1.63;;;20.80;68.40;;;;;;4190442;28;20075;-62
2021/08/27 00:05:07;;;;;;;3.78;1.50;;;20.70;68.60;;;;;;4192042;28;20139;-62
2021/08/27 00:07:29;;;;;;;4.20;1.90;;;20.70;68.90;;;;;;4191529;28;20476;-62
2021/08/27 00:09:52;;;;;;;4.15;1.67;;;20.70;69.10;;;;;;4188950;28;20604;-62
2021/08/27 00:12:14;;;;;;;3.50;1.27;;;20.70;69.40;;;;;;4188280;28;20041;-62
2021/08/27 00:14:36;;;;;;;4.13;1.88;;;20.70;69.60;;;;;;4191546;28;20063;-62
2021/08/27 00:16:58;;;;;;;3.85;1.95;;;20.70;69.80;;;;;;4190058;28;20421;-62
2021/08/27 00:19:20;;;;;;;4.80;1.90;;;20.70;69.90;;;;;;4185383;28;20053;-61
2021/08/27 00:21:43;;;;;;;6.03;1.90;;;20.70;70.00;;;;;;4188030;28;20135;-62
2021/08/27 00:24:06;;;;;;;2.83;1.38;;;20.70;70.00;;;;;;4190249;28;20549;-62
2021/08/27 00:26:29;;;;;;;3.47;1.80;;;20.70;70.10;;;;;;4189866;28;20132;-62
2021/08/27 00:28:51;;;;;;;6.07;1.80;;;20.70;70.10;;;;;;4188871;28;20056;-62
2021/08/27 00:31:13;;;;;;;9.43;2.00;;;20.70;70.00;;;;;;4187075;28;20059;-62
2021/08/27 00:33:35;;;;;;;4.00;1.60;;;20.70;69.90;;;;;;4191048;28;20049;-62
2021/08/27 00:35:57;;;;;;;4.40;1.92;;;20.70;70.00;;;;;;4189645;28;20751;-62
2021/08/27 00:38:19;;;;;;;5.60;1.90;;;20.70;69.90;;;;;;4188128;28;20076;-62
2021/08/27 00:40:41;;;;;;;5.32;1.67;;;20.70;70.00;;;;;;4191189;28;20114;-62
2021/08/27 00:43:05;;;;;;;5.57;1.92;;;20.70;69.90;;;;;;4191304;28;20059;-62
2021/08/27 00:45:27;;;;;;;5.88;1.63;;;20.70;69.80;;;;;;4189235;28;20132;-61
2021/08/27 00:47:49;;;;;;;3.50;1.67;;;20.70;69.70;;;;;;4188102;28;20051;-62
2021/08/27 00:50:12;;;;;;;3.75;1.95;;;20.70;69.60;;;;;;4186249;28;20504;-63
2021/08/27 00:52:35;;;;;;;7.88;2.03;;;20.60;69.50;;;;;;4190988;28;20044;-62
2021/08/27 00:54:57;;;;;;;3.08;1.40;;;20.60;69.10;;;;;;4188396;28;20515;-63
2021/08/27 00:57:19;;;;;;;5.35;1.92;;;20.60;68.60;;;;;;4188088;28;20243;-61
2021/08/27 00:59:43;;;;;;;4.03;1.63;;;20.60;68.00;;;;;;4187191;28;20056;-62
2021/08/27 01:02:06;;;;;;;5.10;1.58;;;20.60;68.50;;;;;;4190070;28;20045;-62
2021/08/27 01:04:29;;;;;;;5.53;1.90;;;20.60;68.80;;;;;;4189391;28;20417;-62
2021/08/27 01:06:56;;;;;;;4.07;1.75;;;20.60;68.90;;;;;;4188343;28;20494;-62
2021/08/27 01:09:24;;;;;;;3.10;1.75;;;20.60;69.40;;;;;;4186926;28;20047;-62
2021/08/27 01:11:53;;;;;;;2.75;1.50;;;20.60;69.50;;;;;;4187434;28;20068;-61
2021/08/27 01:14:22;;;;;;;3.35;1.48;;;20.60;69.80;;;;;;4188993;28;20036;-62
2021/08/27 01:16:53;;;;;;;6.55;2.22;;;20.60;70.00;;;;;;4193287;28;20607;-61
2021/08/27 01:19:41;;;;;;;4.53;2.22;;;20.60;70.00;;;;;;4186284;28;20044;-62
2021/08/27 01:22:27;;;;;;;5.93;1.83;;;20.60;70.20;;;;;;4190419;28;20052;-62
2021/08/27 01:24:50;;;;;;;4.28;1.77;;;20.60;70.40;;;;;;4186882;28;20506;-62
2021/08/27 01:27:18;;;;;;;6.38;2.38;;;20.60;70.50;;;;;;4186069;28;20068;-62
2021/08/27 01:29:51;;;;;;;1.95;1.63;;;20.60;70.60;;;;;;4190403;28;20146;-62
2021/08/27 01:32:21;;;;;;;4.43;1.70;;;20.60;70.60;;;;;;4186073;28;20055;-62
2021/08/27 01:34:46;;;;;;;4.00;2.00;;;20.60;70.80;;;;;;4190651;28;20465;-62
2021/08/27 01:37:11;;;;;;;2.72;1.80;;;20.60;70.90;;;;;;4189698;28;20095;-61
2021/08/27 01:39:37;;;;;;;5.38;1.58;;;20.60;71.00;;;;;;4187035;28;20048;-62
2021/08/27 01:42:02;;;;;;;5.65;2.05;;;20.60;71.20;;;;;;4188879;28;20044;-62
2021/08/27 01:44:26;;;;;;;6.93;2.30;;;20.60;71.40;;;;;;4186805;28;20479;-61
2021/08/27 01:46:51;;;;;;;3.25;1.80;;;20.60;71.50;;;;;;4187118;28;20098;-61
2021/08/27 01:49:15;;;;;;;4.95;2.45;;;20.60;71.60;;;;;;4185906;28;20067;-62
2021/08/27 01:51:40;;;;;;;3.38;1.48;;;20.60;71.70;;;;;;4190242;28;20402;-62
2021/08/27 01:54:03;;;;;;;3.20;2.08;;;20.60;71.70;;;;;;4189813;28;20098;-62
2021/08/27 01:56:25;;;;;;;2.50;1.65;;;20.60;71.70;;;;;;4188183;28;20048;-62
2021/08/27 01:58:47;;;;;;;3.35;1.55;;;20.60;72.70;;;;;;4186784;28;20098;-62
2021/08/27 02:01:10;;;;;;;3.00;1.10;;;20.60;72.00;;;;;;4189538;28;20101;-62
2021/08/27 02:03:33;;;;;;;1.70;1.35;;;20.60;71.90;;;;;;4188500;28;20060;-62
2021/08/27 02:05:57;;;;;;;2.88;1.38;;;20.60;72.10;;;;;;4190985;28;20074;-61
2021/08/27 02:08:22;;;;;;;4.20;1.77;;;20.60;72.10;;;;;;4187151;28;20048;-62
2021/08/27 02:10:46;;;;;;;2.83;1.42;;;20.60;72.10;;;;;;4186394;28;20055;-61
2021/08/27 02:13:08;;;;;;;3.38;1.63;;;20.60;72.10;;;;;;4190181;28;20049;-62
2021/08/27 02:15:32;;;;;;;7.90;1.92;;;20.60;72.20;;;;;;4188349;28;20413;-62
2021/08/27 02:17:54;;;;;;;4.30;1.40;;;20.60;72.00;;;;;;4187582;28;20047;-62
2021/08/27 02:20:17;;;;;;;3.58;1.98;;;20.60;71.80;;;;;;4193819;28;20498;-62
2021/08/27 02:22:39;;;;;;;3.55;1.88;;;20.60;71.70;;;;;;4189891;28;20048;-62
2021/08/27 02:25:06;;;;;;;5.22;2.00;;;20.60;71.70;;;;;;4186446;28;20060;-61
2021/08/27 02:27:29;;;;;;;7.50;2.03;;;20.60;71.50;;;;;;4188024;28;20072;-63
2021/08/27 02:29:54;;;;;;;5.45;1.92;;;20.60;71.40;;;;;;4187101;28;20064;-62
2021/08/27 02:32:17;;;;;;;4.20;1.77;;;20.60;71.50;;;;;;4186846;28;20125;-62
2021/08/27 02:34:42;;;;;;;6.47;2.50;;;20.60;71.60;;;;;;4189921;28;20048;-61
2021/08/27 02:37:05;;;;;;;5.85;2.13;;;20.60;71.70;;;;;;4188915;28;20463;-61
2021/08/27 02:39:30;;;;;;;4.18;1.90;;;20.50;71.80;;;;;;4185834;28;20059;-61
2021/08/27 02:41:54;;;;;;;6.28;2.30;;;20.50;71.90;;;;;;4187298;28;20106;-61
2021/08/27 02:44:18;;;;;;;4.43;2.00;;;20.50;72.10;;;;;;4188261;28;20047;-61
2021/08/27 02:46:40;;;;;;;2.92;1.60;;;20.50;72.40;;;;;;4187291;28;20094;-62
2021/08/27 02:49:02;;;;;;;5.72;2.47;;;20.50;72.60;;;;;;4191707;28;20063;-61
2021/08/27 02:51:34;;;;;;;5.50;2.30;;;20.50;73.00;;;;;;4189958;28;20049;-61
2021/08/27 02:54:02;;;;;;;4.30;2.03;;;20.50;73.30;;;;;;4190183;28;20151;-61
2021/08/27 02:56:28;;;;;;;4.18;1.55;;;20.50;73.70;;;;;;4190615;28;20063;-61
2021/08/27 02:58:54;;;;;;;4.85;2.38;;;20.50;73.90;;;;;;4189673;28;20127;-61
2021/08/27 03:01:19;;;;;;;6.32;2.20;;;20.50;74.00;;;;;;4188918;28;20400;-62
2021/08/27 03:03:54;;;;;;;4.45;2.10;;;20.50;74.10;;;;;;4190425;28;21227;-61
2021/08/27 03:06:21;;;;;;;5.72;1.85;;;20.50;74.40;;;;;;4188505;28;20052;-61
2021/08/27 03:08:48;;;;;;;5.50;1.92;;;20.40;74.20;;;;;;4188167;28;20051;-61
2021/08/27 03:11:14;;;;;;;3.85;1.92;;;20.40;75.10;;;;;;4192423;28;20055;-60
2021/08/27 03:13:45;;;;;;;7.88;2.42;;;20.40;74.40;;;;;;4191463;28;20056;-61
2021/08/27 03:16:12;;;;;;;6.90;2.38;;;20.40;74.70;;;;;;4190545;28;20483;-61
2021/08/27 03:18:43;;;;;;;4.65;2.25;;;20.40;74.50;;;;;;4191495;28;20053;-61
2021/08/27 03:21:15;;;;;;;5.30;2.00;;;20.40;74.70;;;;;;4190983;28;20075;-61
2021/08/27 03:23:39;;;;;;;3.58;1.52;;;20.40;74.70;;;;;;4193198;28;20382;-61
2021/08/27 03:26:03;;;;;;;3.00;1.70;;;20.40;74.80;;;;;;4193582;28;20070;-61
2021/08/27 03:28:28;;;;;;;5.82;2.20;;;20.40;75.00;;;;;;4189599;28;20055;-61
2021/08/27 03:30:52;;;;;;;4.78;1.77;;;20.40;74.90;;;;;;4189148;28;20052;-61
2021/08/27 03:33:16;;;;;;;3.78;1.88;;;20.40;74.90;;;;;;4188176;28;20047;-62
2021/08/27 03:35:38;;;;;;;4.18;1.52;;;20.40;74.80;;;;;;4191463;28;20045;-61
2021/08/27 03:38:02;;;;;;;4.25;1.27;;;20.40;74.80;;;;;;4190557;28;20414;-61
2021/08/27 03:40:26;;;;;;;3.05;1.70;;;20.40;74.90;;;;;;4189486;28;20080;-61
2021/08/27 03:42:49;;;;;;;5.22;2.33;;;20.40;74.80;;;;;;4188504;28;20213;-61
2021/08/27 03:45:13;;;;;;;4.95;1.70;;;20.40;74.90;;;;;;4191892;28;20051;-61
2021/08/27 03:47:37;;;;;;;3.75;1.60;;;20.40;75.10;;;;;;4191349;28;20062;-61
2021/08/27 03:50:00;;;;;;;1.90;1.55;;;20.40;74.60;;;;;;4189664;28;20056;-61
2021/08/27 03:52:24;;;;;;;3.38;1.50;;;20.40;74.60;;;;;;4189263;28;20041;-61
2021/08/27 03:54:46;;;;;;;4.93;1.63;;;20.40;74.50;;;;;;4185350;28;20053;-61
2021/08/27 03:57:09;;;;;;;3.15;1.58;;;20.40;74.50;;;;;;4192209;28;20048;-61
2021/08/27 03:59:32;;;;;;;2.72;1.73;;;20.40;74.50;;;;;;4190406;28;20471;-62
2021/08/27 04:01:56;;;;;;;5.75;2.15;;;20.40;74.40;;;;;;4189506;28;20078;-61
2021/08/27 04:04:20;;;;;;;3.13;1.30;;;20.40;74.50;;;;;;4187275;28;20052;-61
2021/08/27 04:06:43;;;;;;;3.60;1.55;;;20.40;74.50;;;;;;4191821;28;20472;-61
2021/08/27 04:09:05;;;;;;;7.40;1.58;;;20.40;74.60;;;;;;4190088;28;20143;-62
2021/08/27 04:11:27;;;;;;;3.33;1.88;;;20.40;74.60;;;;;;4189194;28;20048;-61
2021/08/27 04:13:49;;;;;;;4.47;1.60;;;20.40;74.60;;;;;;4188575;28;20049;-61
2021/08/27 04:16:12;;;;;;;7.85;1.75;;;20.40;74.60;;;;;;4190984;28;20051;-61
2021/08/27 04:18:33;;;;;;;4.75;1.92;;;20.40;74.50;;;;;;4190357;28;20048;-62
2021/08/27 04:20:55;;;;;;;5.53;1.80;;;20.40;74.50;;;;;;4189282;28;20056;-61
2021/08/27 04:23:19;;;;;;;5.68;1.80;;;20.40;74.10;;;;;;4187301;28;20091;-62
2021/08/27 04:25:41;;;;;;;4.97;2.08;;;20.40;73.90;;;;;;4192389;28;20052;-62
2021/08/27 04:28:03;;;;;;;8.18;2.47;;;20.40;73.80;;;;;;4192419;28;20098;-61
2021/08/27 04:30:26;;;;;;;6.70;2.15;;;20.40;73.80;;;;;;4192419;28;20871;-61
2021/08/27 04:32:48;;;;;;;8.02;2.55;;;20.40;74.00;;;;;;4192708;28;20063;-61
2021/08/27 04:35:10;;;;;;;6.47;2.63;;;20.40;74.30;;;;;;4192274;28;20529;-61
2021/08/27 04:37:32;;;;;;;5.00;2.40;;;20.40;74.30;;;;;;4192363;28;20048;-62
2021/08/27 04:39:55;;;;;;;5.55;2.17;;;20.40;74.20;;;;;;4192173;28;20410;-60
2021/08/27 04:42:17;;;;;;;8.80;1.98;;;20.40;74.30;;;;;;4192443;28;20045;-61
2021/08/27 04:44:40;;;;;;;5.43;1.90;;;20.40;74.10;;;;;;4204383;28;20536;-62
2021/08/27 04:47:01;;;;;;;6.03;2.03;;;20.40;74.10;;;;;;4191978;28;20060;-61
2021/08/27 04:49:24;;;;;;;7.93;2.38;;;20.40;74.00;;;;;;4192197;28;20060;-61
2021/08/27 04:51:46;;;;;;;2.92;1.83;;;20.40;74.00;;;;;;4191341;28;20055;-62
2021/08/27 04:54:08;;;;;;;7.82;2.90;;;20.40;74.00;;;;;;4183125;28;20049;-62
2021/08/27 04:56:31;;;;;;;7.97;2.72;;;20.30;74.20;;;;;;4175522;28;20128;-61
2021/08/27 04:58:54;;;;;;;6.88;2.63;;;20.30;74.40;;;;;;4175429;28;20059;-61
2021/08/27 05:01:16;;;;;;;8.68;2.28;;;20.30;74.70;;;;;;4175462;28;20064;-62
2021/08/27 05:03:38;;;;;;;5.65;2.13;;;20.30;74.90;;;;;;4179606;28;20044;-61
2021/08/27 05:06:00;;;;;;;8.25;2.03;;;20.30;75.10;;;;;;4191984;28;20803;-62
2021/08/27 05:08:22;;;;;;;5.93;2.08;;;20.30;75.30;;;;;;4191368;28;20137;-61
2021/08/27 05:10:44;;;;;;;6.90;2.03;;;20.30;75.50;;;;;;4191464;28;20131;-62
2021/08/27 05:13:07;;;;;;;5.35;2.40;;;20.30;75.50;;;;;;4193301;28;20471;-62
2021/08/27 05:15:29;;;;;;;10.05;2.40;;;20.30;75.50;;;;;;4206286;28;20051;-62
2021/08/27 05:17:51;;;;;;;7.22;2.53;;;20.30;75.50;;;;;;4191814;28;20190;-61
2021/08/27 05:20:14;;;;;;;4.45;1.70;;;20.30;75.60;;;;;;4191588;28;20048;-61
2021/08/27 05:22:36;;;;;;;5.78;1.48;;;20.30;75.60;;;;;;4191719;28;20123;-61
2021/08/27 05:24:58;;;;;;;6.05;1.90;;;20.30;75.70;;;;;;4175495;28;20132;-62
2021/08/27 05:27:20;;;;;;;4.32;2.10;;;20.20;75.80;;;;;;4174927;28;20052;-62
2021/08/27 05:29:43;;;;;;;4.20;2.05;;;20.20;76.20;;;;;;4175125;28;20045;-61
2021/08/27 05:32:06;;;;;;;6.18;2.15;;;20.30;76.30;;;;;;4176174;28;20141;-62
2021/08/27 05:34:28;;;;;;;5.15;1.88;;;20.30;76.30;;;;;;4201615;28;20135;-62
2021/08/27 05:36:50;;;;;;;5.82;2.08;;;20.30;77.30;;;;;;4206254;28;20132;-62
2021/08/27 05:39:13;;;;;;;7.13;2.17;;;20.30;76.70;;;;;;4175030;28;20098;-61
2021/08/27 05:41:35;;;;;;;3.25;1.83;;;20.30;76.70;;;;;;4174673;28;20049;-62
2021/08/27 05:43:57;;;;;;;4.70;1.63;;;20.30;76.90;;;;;;4174473;28;20122;-62
2021/08/27 05:46:21;;;;;;;4.88;2.67;;;20.30;77.00;;;;;;4181330;28;20052;-62
2021/08/27 05:48:42;;;;;;;8.50;2.10;;;20.30;77.10;;;;;;4191332;28;20470;-61
2021/08/27 05:51:05;;;;;;;7.20;2.42;;;20.30;77.60;;;;;;4191321;28;20053;-62
2021/08/27 05:53:27;;;;;;;5.97;2.20;;;20.30;78.00;;;;;;4202396;28;20126;-61
2021/08/27 05:55:49;;;;;;;5.25;1.80;;;20.30;78.10;;;;;;4192530;28;20048;-61
2021/08/27 05:58:11;;;;;;;4.05;1.63;;;20.30;78.20;;;;;;4191230;28;20140;-61
2021/08/27 06:00:35;;;;;;;4.63;1.98;;;20.30;78.30;;;;;;4191635;28;20106;-61
2021/08/27 06:02:59;;;;;;;4.22;1.85;;;20.30;78.20;;;;;;4191370;28;20068;-61
2021/08/27 06:05:21;;;;;;;2.53;1.88;;;20.30;79.10;;;;;;4190909;28;20060;-62
2021/08/27 06:07:43;;;;;;;3.03;1.25;;;20.30;78.20;;;;;;4191186;28;20053;-62
2021/08/27 06:10:08;;;;;;;3.88;1.13;;;20.30;78.50;;;;;;4191037;28;20051;-62
2021/08/27 06:12:30;;;;;;;4.05;1.73;;;20.30;78.50;;;;;;4197284;28;20726;-62
2021/08/27 06:14:52;;;;;;;3.47;1.40;;;20.30;78.60;;;;;;4207586;28;20138;-62
2021/08/27 06:17:14;;;;;;;4.55;2.03;;;20.20;78.90;;;;;;4207779;28;20483;-61
2021/08/27 06:19:38;;;;;;;3.70;1.30;;;20.30;79.60;;;;;;4207702;28;20085;-62
2021/08/27 06:22:00;;;;;;;3.70;1.27;;;20.30;79.20;;;;;;4208252;28;20075;-63
2021/08/27 06:24:22;;;;;;;5.78;1.38;;;20.30;80.00;;;;;;4211514;28;20040;-62
2021/08/27 06:26:44;;;;;;;5.70;1.23;;;20.30;80.50;;;;;;4210828;28;20050;-62
2021/08/27 06:29:06;;;;;;;5.47;2.08;;;20.30;80.20;;;;;;4206893;28;20101;-62
2021/08/27 06:31:29;;;;;;;2.80;1.27;;;20.30;79.90;;;;;;4192173;28;20044;-62
2021/08/27 06:33:51;;;;;;;3.63;1.35;;;20.30;79.80;;;;;;4182835;28;20121;-61
2021/08/27 06:36:15;;;;;;;3.38;1.55;;;20.30;80.10;;;;;;4180197;28;20414;-61
2021/08/27 06:38:37;;;;;;;4.15;1.55;;;20.40;80.30;;;;;;4176508;28;20586;-60
2021/08/27 06:41:02;;;;;;;4.78;1.33;;;20.40;80.40;;;;;;4178016;28;20517;-61
2021/08/27 06:43:26;;;;;;;2.85;1.40;;;20.40;80.50;;;;;;4177815;28;20041;-60
2021/08/27 06:45:49;;;;;;;2.15;1.30;;;20.40;80.50;;;;;;4187831;28;20559;-61
2021/08/27 06:48:11;;;;;;;4.82;1.33;;;20.40;80.50;;;;;;4193946;28;20151;-61
2021/08/27 06:50:37;;;;;;;3.83;1.50;;;20.40;80.50;;;;;;4193589;28;20078;-60
2021/08/27 06:53:03;;;;;;;4.38;1.48;;;20.40;80.50;;;;;;4191471;28;20064;-60
2021/08/27 06:55:25;;;;;;;4.40;1.50;;;20.40;80.40;;;;;;4198283;28;20056;-62
2021/08/27 06:57:47;;;;;;;5.72;1.40;;;20.40;80.60;;;;;;4197602;28;20048;-60
2021/08/27 07:00:11;;;;;;;4.95;1.10;;;20.40;80.40;;;;;;4198974;28;20079;-60
2021/08/27 07:02:33;;;;;;;5.18;1.40;;;20.40;80.40;;;;;;4196937;28;20080;-62
2021/08/27 07:04:55;;;;;;;3.90;1.60;;;20.30;81.40;;;;;;4191730;28;20048;-60
2021/08/27 07:07:17;;;;;;;3.03;1.35;;;20.30;80.60;;;;;;4193946;28;20044;-60
2021/08/27 07:09:41;;;;;;;3.38;1.33;;;20.30;80.60;;;;;;4193564;28;20094;-60
2021/08/27 07:12:04;;;;;;;3.65;1.50;;;20.40;80.80;;;;;;4193198;28;20058;-63
2021/08/27 07:14:27;;;;;;;5.75;1.60;;;20.30;80.80;;;;;;4198881;28;20053;-60
2021/08/27 07:16:49;;;;;;;4.70;1.38;;;20.40;81.10;;;;;;4177299;28;20057;-62
2021/08/27 07:19:11;;;;;;;6.03;1.65;;;20.40;81.40;;;;;;4177313;28;20491;-60
2021/08/27 07:21:33;;;;;;;2.70;1.48;;;20.40;81.60;;;;;;4177225;28;20049;-60
2021/08/27 07:23:56;;;;;;;3.72;1.27;;;20.40;82.30;;;;;;4176871;28;20064;-62
2021/08/27 07:26:19;;;;;;;3.25;1.13;;;20.40;82.00;;;;;;4178011;28;20564;-61
2021/08/27 07:28:41;;;;;;;2.50;1.10;;;20.40;82.00;;;;;;4177222;28;20059;-62
2021/08/27 07:31:03;;;;;;;3.42;1.30;;;20.40;81.90;;;;;;4177121;28;20048;-61
2021/08/27 07:33:25;;;;;;;5.97;1.65;;;20.40;81.40;;;;;;4176415;28;20056;-62
2021/08/27 07:35:48;;;;;;;4.65;1.52;;;20.40;81.00;;;;;;4176848;28;20036;-62
2021/08/27 07:38:10;;;;;;;7.05;2.15;;;20.40;80.70;;;;;;4176844;28;20052;-63
2021/08/27 07:40:33;;;;;;;3.22;1.15;;;20.40;80.70;;;;;;4192826;28;20048;-62
2021/08/27 07:42:56;;;;;;;4.95;1.40;;;20.40;81.00;;;;;;4196334;28;20052;-63
2021/08/27 07:45:18;;;;;;;4.25;1.63;;;20.50;81.20;;;;;;4193235;28;20128;-62
2021/08/27 07:47:40;;;;;;;2.75;1.33;;;20.50;81.50;;;;;;4192825;28;20049;-61
2021/08/27 07:50:02;;;;;;;5.07;2.03;;;20.60;81.50;;;;;;4201769;28;20056;-62
2021/08/27 07:52:24;;;;;;;6.53;1.45;;;20.60;81.50;;;;;;4209838;28;20124;-62
2021/08/27 07:54:46;;;;;;;2.47;1.67;;;20.60;81.90;;;;;;4198537;28;20056;-62
2021/08/27 07:57:08;;;;;;;6.18;1.95;;;20.70;81.90;;;;;;4176224;28;20052;-62
2021/08/27 07:59:32;;;;;;;2.60;1.20;;;20.70;81.30;;;;;;4188348;28;20546;-63
2021/08/27 08:01:54;;;;;;;6.20;2.08;;;20.70;80.50;;;;;;4197184;28;20136;-61
2021/08/27 08:04:19;;;;;;;6.72;2.22;;;20.70;80.00;;;;;;4192829;28;20139;-63
2021/08/27 08:06:42;;;;;;;3.88;1.73;;;20.70;79.50;;;;;;4186539;28;20102;-61
2021/08/27 08:09:04;;;;;;;3.63;1.52;;;20.70;78.70;;;;;;4176632;28;20844;-64
2021/08/27 08:11:26;;;;;;;3.55;1.52;;;20.70;78.20;;;;;;4183180;28;20064;-62
2021/08/27 08:13:48;;;;;;;2.60;1.60;;;20.70;77.90;;;;;;4186419;28;20059;-63
2021/08/27 08:16:12;;;;;;;4.85;1.48;;;20.70;77.50;;;;;;4192804;28;20052;-63
2021/08/27 08:18:35;;;;;;;5.50;1.98;;;20.70;77.50;;;;;;4177751;28;20045;-63
2021/08/27 08:20:58;;;;;;;4.88;1.95;;;20.60;77.70;;;;;;4184873;28;20052;-62
2021/08/27 08:23:21;;;;;;;4.25;1.60;;;20.70;77.70;;;;;;4184181;28;20437;-62
2021/08/27 08:25:43;;;;;;;5.78;1.80;;;20.70;77.90;;;;;;4193027;28;20487;-63
2021/08/27 08:28:06;;;;;;;3.22;1.20;;;20.70;77.80;;;;;;4185952;28;20491;-62
2021/08/27 08:30:29;;;;;;;3.88;1.85;;;20.70;77.80;;;;;;4192697;28;20048;-62
2021/08/27 08:32:52;;;;;;;6.30;2.10;;;20.60;77.60;;;;;;4190654;28;20054;-62
2021/08/27 08:35:14;;;;;;;3.70;1.70;;;20.70;77.30;;;;;;4192120;28;20059;-62
2021/08/27 08:37:39;;;;;;;4.10;1.73;;;20.70;77.20;;;;;;4177197;28;20114;-63
2021/08/27 08:40:02;;;;;;;3.25;1.77;;;20.80;76.90;;;;;;4176043;28;20053;-62
2021/08/27 08:42:24;;;;;;;4.63;1.92;;;20.80;77.10;;;;;;4175802;28;20052;-62
2021/08/27 08:44:46;;;;;;;3.70;1.65;;;20.80;76.90;;;;;;4174841;28;20099;-62
2021/08/27 08:47:10;;;;;;;3.22;1.60;;;20.90;76.80;;;;;;4179074;28;20048;-62
2021/08/27 08:49:36;;;;;;;6.63;2.15;;;20.90;76.80;;;;;;4192176;28;20105;-62
2021/08/27 08:52:00;;;;;;;5.70;2.13;;;20.90;74.70;;;;;;4192141;28;20053;-63
2021/08/27 08:54:22;;;;;;;3.92;1.75;;;20.90;74.40;;;;;;4191733;28;20048;-62
2021/08/27 08:56:44;;;;;;;3.97;1.65;;;20.90;74.90;;;;;;4191953;28;20414;-63
2021/08/27 08:59:06;;;;;;;3.10;1.65;;;20.80;75.80;;;;;;4179668;28;20067;-62
2021/08/27 09:01:28;;;;;;;4.68;1.77;;;20.80;74.00;;;;;;4192331;28;20588;-63
2021/08/27 09:03:51;;;;;;;4.20;1.73;;;20.80;73.90;;;;;;4175422;28;20494;-63
2021/08/27 09:06:15;;;;;;;7.50;2.33;;;20.80;74.00;;;;;;4183400;28;20161;-62
2021/08/27 09:08:39;;;;;;;5.05;1.70;;;20.90;74.30;;;;;;4192022;28;20419;-62
2021/08/27 09:11:01;;;;;;;3.47;1.42;;;20.90;74.40;;;;;;4192066;28;20056;-62
2021/08/27 09:13:30;;;;;;;2.22;1.35;;;20.90;73.50;;;;;;4191181;28;20143;-62
2021/08/27 09:16:04;;;;;;;6.32;1.77;;;20.90;73.70;;;;;;4191471;28;20052;-62
2021/08/27 09:18:26;;;;;;;2.58;1.20;;;20.90;73.50;;;;;;4178909;28;20746;-62
2021/08/27 09:20:48;;;;;;;6.00;1.65;;;20.90;72.60;;;;;;4191265;28;20133;-62
2021/08/27 09:23:14;;;;;;;3.72;1.70;;;21.00;72.30;;;;;;4191753;28;20105;-62
2021/08/27 09:25:41;;;;;;;3.35;1.23;;;21.00;70.90;;;;;;4179957;28;20108;-62
2021/08/27 09:28:09;;;;;;;3.65;1.55;;;21.00;71.30;;;;;;4190652;28;20044;-62
2021/08/27 09:30:34;;;;;;;3.83;1.83;;;21.10;71.10;;;;;;4191481;28;20059;-62
2021/08/27 09:32:57;;;;;;;1.65;1.17;;;21.10;70.10;;;;;;4174478;28;20079;-62
2021/08/27 09:35:22;;;;;;;3.75;1.58;;;21.10;69.30;;;;;;4178466;28;20143;-61
2021/08/27 09:37:47;;;;;;;5.10;2.00;;;21.10;68.40;;;;;;4187358;28;20051;-64
2021/08/27 09:40:13;;;;;;;5.95;2.00;;;21.10;69.20;;;;;;4191525;28;20064;-63
2021/08/27 09:42:39;;;;;;;4.90;1.33;;;21.10;69.60;;;;;;4191298;28;20048;-63
2021/08/27 09:45:02;;;;;;;3.05;1.48;;;21.10;69.70;;;;;;4191274;28;20049;-63
2021/08/27 09:47:24;;;;;;;2.15;1.02;;;21.10;69.30;;;;;;4199433;27;20418;-63
2021/08/27 09:49:46;;;;;;;1.98;1.05;;;21.10;69.20;;;;;;4208144;27;20543;-63
2021/08/27 09:52:11;;;;;;;2.33;1.30;;;21.10;69.70;;;;;;4207660;27;20044;-62
2021/08/27 09:54:34;;;;;;;2.13;1.45;;;21.20;69.70;;;;;;4208129;27;20555;-62
2021/08/27 09:57:00;;;;;;;2.28;1.50;;;21.20;69.70;;;;;;4207921;27;20044;-63
2021/08/27 09:59:36;;;;;;;3.50;1.95;;;21.20;69.40;;;;;;4199385;27;20056;-63
2021/08/27 10:01:59;;;;;;;6.13;2.10;;;21.20;70.30;;;;;;4187149;28;20490;-63
2021/08/27 10:04:21;;;;;;;4.05;1.65;;;21.20;70.60;;;;;;4191108;28;20044;-63
2021/08/27 10:06:43;;;;;;;4.65;1.58;;;21.20;71.00;;;;;;4191105;28;20540;-63
2021/08/27 10:09:05;;;;;;;4.00;1.80;;;21.20;70.70;;;;;;4191134;28;20060;-63
2021/08/27 10:11:28;;;;;;;5.47;2.47;;;21.20;71.90;;;;;;4192429;28;20098;-63
2021/08/27 10:13:52;;;;;;;3.80;1.60;;;21.20;72.40;;;;;;4191060;28;20052;-62
2021/08/27 10:16:14;;;;;;;2.75;1.30;;;21.20;73.60;;;;;;4191185;28;20060;-63
2021/08/27 10:18:37;;;;;;;3.22;1.20;;;21.10;74.10;;;;;;4191293;28;20052;-62
2021/08/27 10:21:00;;;;;;;4.55;1.58;;;21.10;74.30;;;;;;4191361;28;20052;-63
2021/08/27 10:23:22;;;;;;;4.97;1.77;;;21.10;74.80;;;;;;4200557;28;20068;-63
2021/08/27 10:25:44;;;;;;;3.65;1.50;;;21.10;75.40;;;;;;4206691;28;20048;-63
2021/08/27 10:28:08;;;;;;;2.72;1.65;;;21.00;75.60;;;;;;4207305;28;20048;-62
2021/08/27 10:30:55;;;;;;;2.90;1.60;;;21.00;74.80;;;;;;4204693;28;20045;-62
2021/08/27 10:33:18;;;;;;;2.58;1.92;;;21.00;74.60;;;;;;4197044;28;20512;-62
2021/08/27 10:35:52;;;;;;;2.10;1.45;;;21.00;74.90;;;;;;4190921;28;20495;-61
2021/08/27 10:38:42;;;;;;;2.95;1.75;;;20.90;74.90;;;;;;4190816;28;20041;-63
2021/08/27 10:41:09;;;;;;;4.72;2.10;;;20.90;75.70;;;;;;4199338;28;20073;-63
2021/08/27 10:43:53;;;;;;;5.15;1.95;;;20.80;76.00;;;;;;4207517;28;20044;-62
2021/08/27 10:46:17;;;;;;;2.78;1.30;;;20.80;76.60;;;;;;4207033;28;20486;-62
2021/08/27 10:48:49;;;;;;;3.08;1.50;;;20.80;76.70;;;;;;4207485;28;20051;-62
2021/08/27 10:51:30;;;;;;;2.60;1.20;;;20.80;76.80;;;;;;4199995;28;20060;-61
2021/08/27 10:53:56;;;;;;;2.72;1.33;;;20.80;76.80;;;;;;4190842;28;20044;-61
2021/08/27 10:56:40;;;;;;;2.05;1.13;;;20.80;76.00;;;;;;4190880;28;20127;-62
2021/08/27 10:59:08;;;;;;;2.95;1.20;;;20.70;75.60;;;;;;4190701;28;20127;-61
2021/08/27 11:01:33;;;;;;;1.80;1.15;;;20.80;75.90;;;;;;4198078;28;20051;-62
2021/08/27 11:04:17;;;;;;;3.40;1.55;;;20.80;76.50;;;;;;4207721;28;20456;-62
2021/08/27 11:07:03;;;;;;;4.05;1.77;;;20.70;78.10;;;;;;4207215;28;20040;-62
2021/08/27 11:09:26;;;;;;;5.72;1.60;;;20.80;77.90;;;;;;4210162;28;20052;-63
2021/08/27 11:12:09;;;;;;;4.07;1.45;;;20.80;77.60;;;;;;4208963;28;20143;-63
2021/08/27 11:14:30;;;;;;;3.67;1.83;;;20.80;78.50;;;;;;4208907;28;20076;-63
2021/08/27 11:16:58;;;;;;;2.72;1.48;;;20.80;79.50;;;;;;4210212;28;20075;-63
2021/08/27 11:19:31;;;;;;;3.03;1.58;;;20.80;79.10;;;;;;4210231;28;20474;-62
2021/08/27 11:21:56;;;;;;;2.42;1.45;;;20.90;79.50;;;;;;4210443;28;20055;-62
2021/08/27 11:24:21;;;;;;;6.03;2.22;;;20.90;78.80;;;;;;4208262;28;20056;-62
2021/08/27 11:26:46;;;;;;;3.80;1.70;;;20.90;79.00;;;;;;4210076;28;20456;-62
2021/08/27 11:29:27;;;;;;;6.20;1.90;;;20.90;78.10;;;;;;4210091;28;20477;-62
2021/08/27 11:31:51;;;;;;;3.97;1.73;;;21.00;77.50;;;;;;4194561;28;20044;-63
2021/08/27 11:34:16;;;;;;;2.92;1.77;;;21.00;76.20;;;;;;4210359;28;20059;-62
2021/08/27 11:36:38;;;;;;;1.77;1.38;;;21.00;75.90;;;;;;4204004;28;20048;-62
2021/08/27 11:39:00;;;;;;;3.90;1.23;;;21.00;75.40;;;;;;4194196;28;20060;-63
2021/08/27 11:41:24;;;;;;;2.40;1.90;;;21.00;75.70;;;;;;4193376;28;20051;-63
2021/08/27 11:43:47;;;;;;;2.53;1.48;;;21.10;75.10;;;;;;4193231;28;20422;-63
2021/08/27 11:46:15;;;;;;;3.70;1.60;;;21.10;74.10;;;;;;4193191;28;20052;-63
2021/08/27 11:48:40;;;;;;;4.45;1.58;;;21.10;74.60;;;;;;4196976;28;20055;-61
2021/08/27 11:51:06;;;;;;;2.60;1.20;;;21.20;74.70;;;;;;4184762;28;20048;-62
2021/08/27 11:53:28;;;;;;;3.65;1.60;;;21.20;73.70;;;;;;4192990;28;20494;-61
2021/08/27 11:55:50;;;;;;;3.30;1.63;;;21.20;72.90;;;;;;4193077;28;20502;-62
2021/08/27 11:58:13;;;;;;;3.35;1.50;;;21.20;73.30;;;;;;4195317;28;20048;-61
2021/08/27 12:00:37;;;;;;;5.07;1.70;;;21.20;73.50;;;;;;4199991;28;20047;-61
2021/08/27 12:03:00;;;;;;;3.15;2.00;;;21.20;72.80;;;;;;4193064;28;20591;-62
2021/08/27 12:05:23;;;;;;;4.10;1.52;;;21.20;72.40;;;;;;4193087;28;20044;-62
2021/08/27 12:07:54;;;;;;;5.10;1.52;;;21.20;72.10;;;;;;4192820;28;20044;-61
2021/08/27 12:10:17;;;;;;;5.05;1.60;;;21.20;71.60;;;;;;4192795;28;20049;-62
2021/08/27 12:12:40;;;;;;;3.00;1.67;;;21.20;71.00;;;;;;4201650;28;20068;-61
2021/08/27 12:15:04;;;;;;;3.70;1.67;;;21.20;71.60;;;;;;4209764;28;20131;-61
2021/08/27 12:17:27;;;;;;;4.25;1.48;;;21.20;72.40;;;;;;4206058;28;20133;-61
2021/08/27 12:19:50;;;;;;;5.95;2.25;;;21.20;72.50;;;;;;4191004;28;20048;-61
2021/08/27 12:22:13;;;;;;;7.22;1.92;;;21.20;72.80;;;;;;4191962;28;20072;-60
2021/08/27 12:24:36;;;;;;;2.95;1.52;;;21.20;73.00;;;;;;4192652;28;20044;-61
2021/08/27 12:26:59;;;;;;;4.80;1.70;;;21.20;73.30;;;;;;4191998;28;20063;-61
2021/08/27 12:29:21;;;;;;;4.85;1.98;;;21.20;73.40;;;;;;4192656;28;20068;-61
2021/08/27 12:31:58;;;;;;;5.13;1.40;;;21.20;72.90;;;;;;4203218;28;20059;-60